Time;durP1;ratioP1;P1;durP2;ratioP2;P2;SDS_P1;SDS_P2;PMS_P1;PMS_P2;Temp;Humidity;BMP_temperature;BMP_pressure;BME280_temperature;BME280_humidity;BME280_pressure;Samples;Min_cycle;Max_cycle;Signal;HPM_P1;HPM_P2
2021/09/26 00:01:12;;;;;;;20.52;17.05;;;;;;;18.68;69.58;100543.31;4874032;28;98596;-86
2021/09/26 00:03:37;;;;;;;25.30;19.30;;;;;;;18.57;69.89;100545.78;4874966;28;101643;-83
2021/09/26 00:06:03;;;;;;;21.52;19.15;;;;;;;18.64;68.87;100539.97;4877507;28;97259;-85
2021/09/26 00:08:28;;;;;;;21.45;19.08;;;;;;;18.59;69.17;100547.41;4880808;28;97304;-85
2021/09/26 00:10:54;;;;;;;22.30;19.80;;;;;;;18.59;69.04;100546.53;4847706;28;99944;-85
2021/09/26 00:13:19;;;;;;;21.40;19.13;;;;;;;18.69;69.18;100552.97;4891788;28;98582;-84
2021/09/26 00:15:45;;;;;;;22.33;19.63;;;;;;;18.67;69.18;100545.09;4867500;28;97180;-85
2021/09/26 00:18:10;;;;;;;21.60;18.95;;;;;;;18.65;69.32;100548.81;4876760;28;97001;-85
2021/09/26 00:20:36;;;;;;;20.55;17.48;;;;;;;18.59;69.98;100547.41;4876303;28;98390;-83
2021/09/26 00:23:02;;;;;;;21.15;18.95;;;;;;;18.47;70.04;100538.41;4876149;28;100361;-85
2021/09/26 00:25:28;;;;;;;20.48;17.38;;;;;;;18.48;70.14;100536.59;4875253;28;98708;-85
2021/09/26 00:27:53;;;;;;;25.13;19.35;;;;;;;18.49;69.72;100538.28;4860088;28;97214;-84
2021/09/26 00:30:19;;;;;;;24.05;18.45;;;;;;;18.44;69.95;100530.63;4860196;28;101396;-84
2021/09/26 00:32:46;;;;;;;20.52;18.30;;;;;;;18.58;69.41;100536.84;4860099;28;100950;-85
2021/09/26 00:35:12;;;;;;;24.13;19.30;;;;;;;18.68;69.52;100543.31;4861092;28;97244;-84
2021/09/26 00:37:38;;;;;;;21.20;19.00;;;;;;;18.51;69.85;100539.91;4874882;28;97382;-82
2021/09/26 00:40:05;;;;;;;22.58;20.23;;;;;;;18.53;69.75;100547.78;4875182;28;100576;-83
2021/09/26 00:42:31;;;;;;;23.08;19.60;;;;;;;18.47;69.74;100543.72;4894440;28;99019;-85
2021/09/26 00:44:58;;;;;;;26.83;20.40;;;;;;;18.46;69.68;100547.31;4874691;28;96999;-85
2021/09/26 00:47:26;;;;;;;21.98;19.40;;;;;;;18.49;69.95;100546.25;4878737;28;99012;-84
2021/09/26 00:49:52;;;;;;;24.73;20.08;;;;;;;18.59;69.13;100544.75;4856832;28;101865;-83
2021/09/26 00:52:19;;;;;;;23.17;19.65;;;;;;;18.62;68.97;100535.72;4879931;28;97645;-85
2021/09/26 00:54:46;;;;;;;26.38;20.63;;;;;;;18.49;69.63;100541.78;4875547;28;97248;-85
2021/09/26 00:57:11;;;;;;;23.00;20.10;;;;;;;18.38;69.81;100543.44;4859836;28;97241;-85
2021/09/26 00:59:37;;;;;;;23.38;20.98;;;;;;;18.35;70.14;100546.28;4891702;28;98270;-83
2021/09/26 01:02:03;;;;;;;25.15;21.35;;;;;;;18.68;69.25;100548.63;4891580;28;98310;-85
2021/09/26 01:04:29;;;;;;;22.23;19.92;;;;;;;18.51;69.47;100545.22;4874230;28;97613;-85
2021/09/26 01:06:55;;;;;;;24.02;20.50;;;;;;;18.37;70.00;100545.25;4872830;28;96841;-85
2021/09/26 01:09:27;;;;;;;23.77;20.70;;;;;;;18.40;70.27;100546.84;4893616;28;97589;-86
2021/09/26 01:12:34;;;;;;;23.42;21.02;;;;;;;18.36;70.18;100545.34;4893740;28;98311;-84
2021/09/26 01:15:06;;;;;;;23.45;20.33;;;;;;;18.37;70.07;100547.91;4868029;28;97158;-84
2021/09/26 01:17:43;;;;;;;22.70;20.27;;;;;;;18.38;70.19;100546.09;4892538;28;97404;-85
2021/09/26 01:20:21;;;;;;;23.27;20.13;;;;;;;18.29;70.53;100545.72;4874576;28;100643;-84
2021/09/26 01:23:05;;;;;;;24.30;19.92;;;;;;;18.38;70.24;100554.06;4900638;28;100201;-85
2021/09/26 01:25:57;;;;;;;24.92;20.40;;;;;;;18.33;70.52;100549.06;4896642;28;97046;-85
2021/09/26 01:28:32;;;;;;;22.75;20.17;;;;;;;18.37;70.61;100558.53;4878835;28;97180;-84
2021/09/26 01:31:06;;;;;;;22.15;19.35;;;;;;;18.42;70.38;100555.59;4891341;28;100485;-85
2021/09/26 01:33:36;;;;;;;24.02;19.70;;;;;;;18.41;70.53;100553.88;4873855;28;101559;-83
2021/09/26 01:36:09;;;;;;;22.35;19.98;;;;;;;18.41;70.61;100554.72;4864100;28;96745;-85
2021/09/26 01:38:37;;;;;;;22.27;19.75;;;;;;;18.43;70.21;100555.47;4864222;28;97167;-85
2021/09/26 01:41:27;;;;;;;23.00;18.20;;;;;;;18.39;70.02;100558.44;4873699;28;100753;-84
2021/09/26 01:43:55;;;;;;;24.67;20.17;;;;;;;18.31;70.76;100551.78;4891887;28;101739;-84
2021/09/26 01:46:27;;;;;;;25.08;20.70;;;;;;;18.31;70.62;100558.91;4864326;28;96866;-85
2021/09/26 01:48:55;;;;;;;24.90;19.98;;;;;;;18.29;70.90;100559.00;4864092;28;97213;-84
2021/09/26 01:51:22;;;;;;;22.75;20.20;;;;;;;18.23;71.23;100554.06;4880209;28;101649;-85
2021/09/26 01:53:47;;;;;;;25.10;19.40;;;;;;;18.29;70.82;100563.47;4876859;28;101686;-84
2021/09/26 01:56:14;;;;;;;22.40;20.00;;;;;;;18.37;70.89;100553.22;4875799;28;97129;-85
2021/09/26 01:58:43;;;;;;;20.95;18.85;;;;;;;18.32;70.60;100557.94;4896039;28;96783;-83
2021/09/26 02:01:08;;;;;;;24.30;19.73;;;;;;;18.27;70.33;100558.25;4895304;28;97815;-85
2021/09/26 02:03:34;;;;;;;23.20;19.30;;;;;;;18.42;69.70;100552.94;4884501;28;97760;-85
2021/09/26 02:06:00;;;;;;;21.33;18.33;;;;;;;18.26;70.21;100559.19;4880429;28;96908;-84
2021/09/26 02:08:26;;;;;;;21.60;19.13;;;;;;;18.25;70.01;100553.97;4875078;28;96722;-85
2021/09/26 02:10:52;;;;;;;21.60;19.38;;;;;;;18.28;70.21;100556.44;4884035;28;100329;-84
2021/09/26 02:13:18;;;;;;;21.50;19.20;;;;;;;18.25;69.90;100560.16;4894897;28;98636;-84
2021/09/26 02:15:44;;;;;;;22.05;18.35;;;;;;;18.27;70.14;100558.25;4880019;28;96774;-85
2021/09/26 02:18:10;;;;;;;24.77;19.08;;;;;;;18.23;70.18;100569.16;4862765;28;97678;-85
2021/09/26 02:20:37;;;;;;;22.00;19.20;;;;;;;18.19;70.37;100572.97;4854748;28;101111;-84
2021/09/26 02:23:03;;;;;;;22.25;19.00;;;;;;;18.26;70.12;100574.28;4872696;28;97721;-85
2021/09/26 02:25:29;;;;;;;25.63;20.30;;;;;;;18.24;70.14;100577.06;4879978;28;96903;-85
2021/09/26 02:27:55;;;;;;;20.38;17.80;;;;;;;18.18;70.75;100581.88;4895591;28;97380;-85
2021/09/26 02:30:22;;;;;;;26.17;19.95;;;;;;;18.18;71.03;100576.56;4896760;28;98305;-84
2021/09/26 02:32:47;;;;;;;22.92;19.42;;;;;;;18.14;71.40;100581.22;4887447;28;98884;-85
2021/09/26 02:35:14;;;;;;;20.20;18.05;;;;;;;18.18;70.92;100577.44;4895713;28;96950;-85
2021/09/26 02:37:43;;;;;;;24.75;19.30;;;;;;;18.22;70.97;100578.94;4879533;28;96971;-83
2021/09/26 02:40:09;;;;;;;25.52;18.80;;;;;;;18.14;71.17;100575.91;4879008;28;97763;-85
2021/09/26 02:42:56;;;;;;;21.50;19.17;;;;;;;18.13;71.06;100574.19;4878358;28;101610;-85
2021/09/26 02:45:44;;;;;;;26.83;19.58;;;;;;;18.12;71.25;100585.75;4867611;28;96694;-83
2021/09/26 02:48:16;;;;;;;22.05;19.65;;;;;;;18.12;70.80;100590.22;4879891;28;96898;-85
2021/09/26 02:50:44;;;;;;;22.42;19.58;;;;;;;18.15;70.87;100593.56;4878269;28;97607;-84
2021/09/26 02:53:10;;;;;;;20.45;18.45;;;;;;;18.09;71.21;100591.25;4860818;28;101350;-84
2021/09/26 02:55:36;;;;;;;20.88;18.08;;;;;;;18.13;71.29;100591.94;4879944;28;96974;-85
2021/09/26 02:58:02;;;;;;;23.70;18.63;;;;;;;18.15;71.16;100587.38;4895230;28;97407;-85
2021/09/26 03:00:39;;;;;;;23.35;17.70;;;;;;;18.14;70.56;100586.53;4878987;28;100867;-84
2021/09/26 03:03:11;;;;;;;21.70;18.00;;;;;;;18.19;70.86;100581.78;4863387;28;101040;-85
2021/09/26 03:05:38;;;;;;;19.80;17.80;;;;;;;18.09;70.63;100576.19;4879910;28;97265;-85
2021/09/26 03:08:05;;;;;;;20.77;18.75;;;;;;;18.13;70.69;100581.31;4878936;28;97215;-85
2021/09/26 03:10:31;;;;;;;21.45;18.65;;;;;;;18.14;70.34;100583.00;4858929;28;101423;-85
2021/09/26 03:12:56;;;;;;;22.00;17.63;;;;;;;18.10;70.64;100577.03;4877190;28;101772;-85
2021/09/26 03:15:22;;;;;;;20.33;18.35;;;;;;;18.12;70.56;100575.13;4879689;28;97215;-85
2021/09/26 03:17:48;;;;;;;18.98;17.15;;;;;;;18.16;70.13;100575.81;4859923;28;96947;-84
2021/09/26 03:20:13;;;;;;;21.73;17.23;;;;;;;18.04;70.33;100580.06;4854029;28;101834;-85
2021/09/26 03:22:39;;;;;;;23.20;18.13;;;;;;;18.01;70.56;100582.94;4859157;28;101737;-82
2021/09/26 03:25:05;;;;;;;19.85;17.83;;;;;;;18.03;70.40;100584.50;4894497;28;96813;-85
2021/09/26 03:27:31;;;;;;;20.75;17.92;;;;;;;17.98;70.62;100591.94;4879526;28;97990;-85
2021/09/26 03:29:56;;;;;;;19.02;17.10;;;;;;;17.98;71.00;100583.09;4894324;28;97933;-85
2021/09/26 03:32:22;;;;;;;19.55;17.75;;;;;;;18.01;70.75;100590.88;4861413;28;100740;-85
2021/09/26 03:34:47;;;;;;;20.35;17.40;;;;;;;18.10;70.83;100585.00;4883008;28;96913;-85
2021/09/26 03:37:13;;;;;;;19.40;17.50;;;;;;;17.99;70.86;100585.66;4878981;28;97694;-85
2021/09/26 03:39:39;;;;;;;19.13;17.17;;;;;;;18.03;70.60;100581.84;4878354;28;100265;-85
2021/09/26 03:42:05;;;;;;;18.90;16.90;;;;;;;17.99;70.71;100587.47;4894153;28;97834;-85
2021/09/26 03:44:30;;;;;;;19.73;17.20;;;;;;;18.00;70.84;100578.53;4863193;28;97009;-85
2021/09/26 03:46:56;;;;;;;19.85;17.75;;;;;;;17.91;70.82;100577.28;4878444;28;97114;-85
2021/09/26 03:49:22;;;;;;;20.20;17.40;;;;;;;17.90;71.10;100580.91;4863060;28;101290;-85
2021/09/26 03:51:48;;;;;;;19.10;17.02;;;;;;;17.87;70.96;100575.78;4858287;28;101627;-85
2021/09/26 03:54:18;;;;;;;19.45;17.55;;;;;;;17.84;71.42;100574.16;4871894;28;96859;-85
2021/09/26 03:56:44;;;;;;;20.83;18.35;;;;;;;17.87;71.12;100579.28;4877777;28;97356;-83
2021/09/26 03:59:11;;;;;;;20.63;18.45;;;;;;;17.93;70.98;100566.59;4862554;28;100491;-85
2021/09/26 04:01:37;;;;;;;21.70;18.40;;;;;;;17.97;70.88;100568.94;4894497;28;96973;-85
2021/09/26 04:04:03;;;;;;;21.23;17.92;;;;;;;18.04;70.55;100564.13;4878264;28;96669;-85
2021/09/26 04:06:29;;;;;;;19.15;16.88;;;;;;;18.00;70.85;100562.59;4878350;28;96775;-85
2021/09/26 04:08:54;;;;;;;19.42;17.63;;;;;;;17.98;70.85;100567.19;4874329;28;101586;-85
2021/09/26 04:11:20;;;;;;;20.02;17.98;;;;;;;17.93;71.13;100566.59;4887511;28;99447;-85
2021/09/26 04:13:46;;;;;;;20.55;18.40;;;;;;;18.00;70.80;100575.88;4861259;28;96903;-85
2021/09/26 04:16:12;;;;;;;20.90;18.80;;;;;;;17.84;71.34;100571.50;4879370;28;97378;-85
2021/09/26 04:18:37;;;;;;;20.35;18.20;;;;;;;17.86;71.47;100579.41;4878648;28;97632;-84
2021/09/26 04:21:03;;;;;;;19.77;17.63;;;;;;;17.90;70.94;100578.25;4893050;28;96795;-85
2021/09/26 04:23:29;;;;;;;18.88;16.98;;;;;;;17.91;71.07;100571.97;4875960;28;96737;-85
2021/09/26 04:25:54;;;;;;;24.65;19.58;;;;;;;17.82;71.39;100576.03;4877319;28;97087;-85
2021/09/26 04:28:20;;;;;;;26.63;19.05;;;;;;;17.85;71.45;100570.56;4878117;28;101584;-85
2021/09/26 04:30:45;;;;;;;20.08;18.08;;;;;;;17.76;71.77;100575.53;4873087;28;101536;-84
2021/09/26 04:33:11;;;;;;;21.00;18.77;;;;;;;17.80;71.76;100579.72;4862443;28;97192;-85
2021/09/26 04:35:37;;;;;;;19.73;17.60;;;;;;;17.81;71.52;100571.69;4878062;28;97036;-84
2021/09/26 04:38:02;;;;;;;21.35;17.65;;;;;;;17.80;71.65;100585.03;4877082;28;98173;-84
2021/09/26 04:40:28;;;;;;;19.48;17.38;;;;;;;17.84;71.42;100575.97;4878240;28;96987;-85
2021/09/26 04:42:53;;;;;;;20.20;18.08;;;;;;;17.77;71.97;100582.53;4861721;28;96642;-84
2021/09/26 04:45:19;;;;;;;18.83;16.92;;;;;;;17.76;71.81;100579.03;4862701;28;97260;-85
2021/09/26 04:47:45;;;;;;;20.60;18.45;;;;;;;17.84;71.37;100581.28;4892973;28;98093;-82
2021/09/26 04:50:11;;;;;;;20.52;18.35;;;;;;;17.74;71.65;100593.34;4877734;28;97557;-84
2021/09/26 04:52:37;;;;;;;19.67;17.63;;;;;;;17.76;71.77;100600.28;4877715;28;97148;-85
2021/09/26 04:55:04;;;;;;;23.23;18.70;;;;;;;17.83;71.47;100593.72;4877164;28;97485;-85
2021/09/26 04:57:30;;;;;;;19.90;17.98;;;;;;;17.83;71.39;100599.03;4865553;28;100427;-85
2021/09/26 04:59:55;;;;;;;20.00;18.02;;;;;;;17.95;71.38;100604.50;4880559;28;101978;-84
2021/09/26 05:02:21;;;;;;;20.83;18.67;;;;;;;17.95;71.28;100608.06;4882470;28;96946;-85
2021/09/26 05:04:47;;;;;;;19.00;16.27;;;;;;;17.88;71.32;100604.03;4881639;28;97201;-85
2021/09/26 05:07:12;;;;;;;19.70;17.73;;;;;;;17.78;71.95;100614.38;4876465;28;100218;-83
2021/09/26 05:09:38;;;;;;;21.80;17.85;;;;;;;17.78;71.92;100618.81;4896462;28;98335;-84
2021/09/26 05:12:04;;;;;;;19.02;16.90;;;;;;;17.84;71.36;100614.00;4879753;28;96812;-85
2021/09/26 05:14:29;;;;;;;20.40;17.88;;;;;;;17.79;71.70;100624.03;4880832;28;97000;-85
2021/09/26 05:16:56;;;;;;;19.88;17.90;;;;;;;17.92;71.13;100617.97;4879067;28;101554;-85
2021/09/26 05:19:21;;;;;;;18.20;16.55;;;;;;;17.85;71.46;100615.69;4861156;28;101823;-85
2021/09/26 05:21:47;;;;;;;19.85;17.20;;;;;;;17.78;71.91;100617.00;4889603;28;97317;-85
2021/09/26 05:24:13;;;;;;;19.65;17.65;;;;;;;17.76;72.00;100620.66;4896652;28;96966;-85
2021/09/26 05:26:38;;;;;;;17.63;16.02;;;;;;;17.76;71.97;100621.53;4864851;28;101294;-85
2021/09/26 05:29:06;;;;;;;19.33;17.10;;;;;;;17.80;71.55;100623.09;4880573;28;98454;-86
2021/09/26 05:31:33;;;;;;;19.65;17.45;;;;;;;17.85;71.71;100625.47;4877809;28;96914;-83
2021/09/26 05:33:59;;;;;;;19.90;17.17;;;;;;;18.07;71.26;100633.00;4862815;28;97226;-86
2021/09/26 05:36:25;;;;;;;21.90;18.25;;;;;;;18.07;70.75;100625.03;4880567;28;97581;-86
2021/09/26 05:38:51;;;;;;;19.05;17.27;;;;;;;18.03;71.01;100623.50;4878440;28;97501;-86
2021/09/26 05:41:17;;;;;;;20.13;18.23;;;;;;;17.89;71.43;100629.66;4880664;28;97783;-86
2021/09/26 05:43:42;;;;;;;19.90;17.10;;;;;;;17.80;71.79;100625.75;4880785;28;97462;-83
2021/09/26 05:46:08;;;;;;;19.25;17.10;;;;;;;17.85;71.35;100628.97;4890661;28;98465;-82
2021/09/26 05:48:34;;;;;;;21.40;17.50;;;;;;;17.81;71.92;100622.16;4873811;28;100927;-83
2021/09/26 05:50:59;;;;;;;18.85;16.95;;;;;;;17.93;71.30;100619.72;4874997;28;97057;-86
2021/09/26 05:53:25;;;;;;;19.40;17.40;;;;;;;17.90;71.44;100627.84;4858347;28;97207;-84
2021/09/26 05:55:51;;;;;;;19.95;17.85;;;;;;;17.94;71.88;100624.91;4875346;28;98161;-85
2021/09/26 05:58:16;;;;;;;20.27;18.05;;;;;;;17.87;71.70;100624.44;4895656;28;98264;-84
2021/09/26 06:00:42;;;;;;;18.30;16.50;;;;;;;17.89;71.91;100629.66;4860733;28;97168;-85
2021/09/26 06:03:12;;;;;;;18.45;16.70;;;;;;;17.95;71.55;100628.41;4876504;28;97121;-85
2021/09/26 06:05:38;;;;;;;18.48;16.70;;;;;;;17.94;71.52;100624.91;4863913;28;101398;-85
2021/09/26 06:08:04;;;;;;;19.48;17.42;;;;;;;18.01;71.57;100630.72;4875909;28;101580;-84
2021/09/26 06:10:29;;;;;;;20.30;16.65;;;;;;;17.99;71.69;100629.97;4871212;28;97316;-85
2021/09/26 06:12:55;;;;;;;19.33;17.23;;;;;;;17.99;71.74;100630.81;4876482;28;96982;-85
2021/09/26 06:15:20;;;;;;;18.45;16.65;;;;;;;18.04;71.12;100634.03;4873484;28;101076;-85
2021/09/26 06:17:46;;;;;;;19.13;15.85;;;;;;;18.19;70.91;100632.25;4889839;28;97548;-83
2021/09/26 06:20:12;;;;;;;19.38;17.10;;;;;;;18.24;70.62;100634.66;4874395;28;96861;-84
2021/09/26 06:22:38;;;;;;;20.38;16.85;;;;;;;18.35;70.38;100626.84;4893084;28;96849;-85
2021/09/26 06:25:04;;;;;;;19.17;15.85;;;;;;;18.25;70.50;100626.56;4874330;28;100403;-84
2021/09/26 06:27:30;;;;;;;17.45;15.73;;;;;;;18.30;70.62;100623.66;4871528;28;101435;-85
2021/09/26 06:29:55;;;;;;;18.77;16.65;;;;;;;18.40;70.37;100624.78;4889713;28;97277;-84
2021/09/26 06:32:23;;;;;;;18.80;16.85;;;;;;;18.49;70.33;100620.69;4875057;28;97180;-85
2021/09/26 06:34:49;;;;;;;18.48;16.50;;;;;;;18.54;70.28;100624.78;4871963;28;101884;-84
2021/09/26 06:37:15;;;;;;;17.08;15.43;;;;;;;18.64;69.86;100618.88;4875100;28;101613;-85
2021/09/26 06:39:41;;;;;;;20.10;16.15;;;;;;;18.87;68.75;100625.44;4882842;28;97131;-85
2021/09/26 06:42:06;;;;;;;17.55;15.85;;;;;;;19.11;68.22;100628.31;4875371;28;97499;-85
2021/09/26 06:44:32;;;;;;;16.67;14.95;;;;;;;19.18;68.09;100625.16;4890104;28;101658;-84
2021/09/26 06:46:59;;;;;;;16.50;14.75;;;;;;;19.42;67.21;100624.50;4877025;28;98355;-85
2021/09/26 06:49:24;;;;;;;15.80;14.35;;;;;;;19.55;66.46;100627.22;4875267;28;96859;-85
2021/09/26 06:51:50;;;;;;;15.30;14.00;;;;;;;19.73;65.37;100631.34;4875042;28;96783;-82
2021/09/26 06:54:15;;;;;;;15.45;13.82;;;;;;;19.77;64.69;100631.97;4891165;28;97768;-82
2021/09/26 06:56:41;;;;;;;16.73;15.20;;;;;;;19.78;64.75;100636.34;4878239;28;101496;-84
2021/09/26 06:59:07;;;;;;;13.10;11.80;;;;;;;19.76;65.45;100640.94;4876630;28;96831;-79
2021/09/26 07:01:32;;;;;;;13.10;11.80;;;;;;;19.88;65.45;100640.94;4890087;28;97380;-80
2021/09/26 07:03:59;;;;;;;14.07;12.68;;;;;;;20.02;64.79;100641.84;4877111;28;101702;-81
2021/09/26 07:06:25;;;;;;;14.32;12.93;;;;;;;20.26;64.44;100637.47;4920694;28;97598;-80
2021/09/26 07:08:50;;;;;;;14.73;13.23;;;;;;;20.34;63.73;100635.13;4873088;28;96871;-81
2021/09/26 07:11:16;;;;;;;14.45;13.00;;;;;;;20.46;63.27;100640.56;4875935;28;97319;-83
2021/09/26 07:13:41;;;;;;;14.75;13.35;;;;;;;20.97;61.74;100645.81;4876752;28;101132;-82
2021/09/26 07:16:07;;;;;;;14.63;12.30;;;;;;;20.96;61.74;100638.78;4860305;28;101032;-81
2021/09/26 07:18:32;;;;;;;15.75;14.15;;;;;;;21.63;60.56;100646.34;4875572;28;96739;-84
2021/09/26 07:20:58;;;;;;;15.23;13.70;;;;;;;23.01;56.80;100640.97;4892843;28;97187;-83
2021/09/26 07:23:23;;;;;;;13.20;12.02;;;;;;;24.98;52.63;100646.56;4876849;28;97593;-82
2021/09/26 07:25:49;;;;;;;13.80;12.45;;;;;;;24.89;52.30;100647.41;4877685;28;98263;-80
2021/09/26 07:28:15;;;;;;;16.42;12.57;;;;;;;23.73;54.55;100651.09;4875675;28;96857;-81
2021/09/26 07:30:40;;;;;;;13.15;11.85;;;;;;;23.20;55.22;100643.84;4895621;28;97239;-83
2021/09/26 07:33:06;;;;;;;13.50;12.30;;;;;;;25.94;49.09;100651.22;4886687;28;101315;-82
2021/09/26 07:35:31;;;;;;;13.90;12.57;;;;;;;26.22;47.77;100650.47;4877116;28;98496;-82
2021/09/26 07:37:57;;;;;;;12.93;11.82;;;;;;;25.71;48.60;100652.47;4861132;28;97125;-82
2021/09/26 07:40:22;;;;;;;12.60;11.50;;;;;;;25.67;49.51;100659.13;4891589;28;97246;-83
2021/09/26 07:42:48;;;;;;;11.85;10.85;;;;;;;25.41;49.86;100653.47;4891396;28;98569;-82
2021/09/26 07:45:13;;;;;;;11.98;10.85;;;;;;;25.11;50.71;100655.22;4860359;28;100179;-85
2021/09/26 07:47:40;;;;;;;12.23;11.23;;;;;;;25.79;48.47;100658.00;4875158;28;97416;-84
2021/09/26 07:50:08;;;;;;;12.25;11.25;;;;;;;25.48;49.39;100660.84;4876235;28;97434;-85
2021/09/26 07:52:33;;;;;;;11.57;10.68;;;;;;;26.10;47.71;100664.09;4875214;28;98062;-84
2021/09/26 07:54:59;;;;;;;11.48;10.50;;;;;;;29.19;41.52;100655.56;4877766;28;101508;-84
2021/09/26 07:57:25;;;;;;;10.18;9.48;;;;;;;32.70;34.41;100644.19;4875404;28;98069;-84
2021/09/26 07:59:54;;;;;;;10.13;9.43;;;;;;;32.36;34.44;100653.72;4860309;28;96832;-85
2021/09/26 08:02:19;;;;;;;10.10;9.27;;;;;;;32.98;32.81;100643.47;4860667;28;102654;-85
2021/09/26 08:04:45;;;;;;;9.50;8.80;;;;;;;33.77;32.29;100640.78;4876770;28;101368;-84
2021/09/26 08:07:13;;;;;;;9.55;8.85;;;;;;;35.29;29.24;100635.41;4877731;28;97401;-83
2021/09/26 08:09:39;;;;;;;9.85;9.15;;;;;;;36.12;28.77;100640.53;4892875;28;97349;-83
2021/09/26 08:12:06;;;;;;;9.40;8.70;;;;;;;36.80;28.80;100633.84;4856341;28;101244;-82
2021/09/26 08:14:31;;;;;;;9.30;8.57;;;;;;;37.51;27.01;100636.44;4858887;28;100347;-84
2021/09/26 08:16:57;;;;;;;9.07;8.38;;;;;;;37.11;27.75;100635.81;4875243;28;96894;-84
2021/09/26 08:19:23;;;;;;;9.85;9.10;;;;;;;36.93;28.82;100639.25;4874280;28;96921;-81
2021/09/26 08:21:49;;;;;;;9.32;8.73;;;;;;;37.91;27.00;100641.59;4859097;28;101610;-83
2021/09/26 08:24:15;;;;;;;8.82;8.02;;;;;;;36.69;27.74;100630.75;4890737;28;99025;-82
2021/09/26 08:26:43;;;;;;;9.25;8.45;;;;;;;33.90;31.15;100640.06;4874119;28;98153;-83
2021/09/26 08:29:09;;;;;;;9.05;8.45;;;;;;;32.16;33.93;100649.84;4860301;28;97346;-84
2021/09/26 08:31:34;;;;;;;9.23;8.52;;;;;;;32.04;33.67;100641.31;4869766;28;102228;-84
2021/09/26 08:34:00;;;;;;;8.70;8.10;;;;;;;30.62;36.34;100645.22;4851514;28;101084;-82
2021/09/26 08:36:25;;;;;;;8.88;8.27;;;;;;;31.61;34.21;100642.84;4867481;28;97017;-82
2021/09/26 08:38:51;;;;;;;9.00;8.23;;;;;;;33.23;32.43;100646.72;4856126;28;97227;-82
2021/09/26 08:41:17;;;;;;;9.23;8.63;;;;;;;34.10;29.92;100641.09;4896166;28;99048;-84
2021/09/26 08:43:46;;;;;;;8.30;7.57;;;;;;;35.24;28.79;100637.91;4886295;28;98417;-86
2021/09/26 08:46:13;;;;;;;8.02;7.53;;;;;;;36.74;27.17;100637.44;4854717;28;96818;-85
2021/09/26 08:48:39;;;;;;;8.05;7.55;;;;;;;35.80;27.72;100640.31;4866788;28;96871;-86
2021/09/26 08:51:05;;;;;;;8.55;8.05;;;;;;;35.22;28.48;100644.63;4876021;28;101312;-83
2021/09/26 08:53:30;;;;;;;8.98;8.15;;;;;;;35.56;28.23;100646.41;4887988;28;98039;-85
2021/09/26 08:55:56;;;;;;;8.93;8.32;;;;;;;35.38;28.40;100650.53;4887139;28;96755;-84
2021/09/26 08:58:22;;;;;;;7.70;7.20;;;;;;;35.05;28.58;100644.97;4890534;28;97021;-86
2021/09/26 09:00:48;;;;;;;8.00;7.40;;;;;;;34.30;29.51;100654.00;4875699;28;101665;-85
2021/09/26 09:03:16;;;;;;;7.97;7.47;;;;;;;34.93;28.65;100646.59;4892084;28;98831;-86
2021/09/26 09:05:42;;;;;;;8.23;7.63;;;;;;;34.99;28.58;100639.47;4859047;28;97497;-85
2021/09/26 09:08:13;;;;;;;8.80;8.20;;;;;;;34.87;29.13;100647.41;4874312;28;97328;-85
2021/09/26 09:10:46;;;;;;;8.02;7.53;;;;;;;34.10;29.55;100640.25;4872274;28;100383;-85
2021/09/26 09:13:14;;;;;;;9.00;8.38;;;;;;;33.08;30.92;100641.34;4870763;28;101207;-83
2021/09/26 09:15:41;;;;;;;7.85;7.25;;;;;;;33.90;30.16;100640.91;4871628;28;97018;-84
2021/09/26 09:18:07;;;;;;;8.07;7.57;;;;;;;33.60;29.82;100645.69;4870966;28;97169;-82
2021/09/26 09:20:34;;;;;;;7.75;7.35;;;;;;;33.21;30.47;100633.31;4869309;28;101975;-80
2021/09/26 09:23:05;;;;;;;8.10;7.50;;;;;;;32.44;31.20;100633.78;4855769;28;100721;-79
2021/09/26 09:25:52;;;;;;;8.40;7.80;;;;;;;32.09;31.76;100648.94;4890356;28;96856;-83
2021/09/26 09:28:24;;;;;;;8.57;7.80;;;;;;;33.02;31.08;100636.69;4871046;28;97330;-81
2021/09/26 09:30:56;;;;;;;7.85;7.10;;;;;;;33.59;30.70;100633.09;4854202;28;101214;-81
2021/09/26 09:33:23;;;;;;;8.48;7.78;;;;;;;33.90;29.77;100640.06;4887049;28;98065;-81
2021/09/26 09:35:52;;;;;;;8.50;7.95;;;;;;;33.97;29.96;100641.78;4869924;28;97460;-82
2021/09/26 09:38:27;;;;;;;8.48;7.72;;;;;;;33.33;30.76;100637.19;4851840;28;97296;-82
2021/09/26 09:40:53;;;;;;;9.02;8.48;;;;;;;33.16;30.58;100635.75;4866864;28;100988;-82
2021/09/26 09:43:20;;;;;;;8.32;7.72;;;;;;;33.24;30.82;100622.06;4873465;28;100946;-82
2021/09/26 09:45:52;;;;;;;9.23;7.88;;;;;;;32.71;31.14;100637.72;4891531;28;97397;-82
2021/09/26 09:48:21;;;;;;;8.15;7.65;;;;;;;32.98;30.47;100628.00;4863661;28;97184;-81
2021/09/26 09:50:57;;;;;;;8.63;8.13;;;;;;;33.25;29.93;100628.31;4895659;28;98778;-80
2021/09/26 09:53:45;;;;;;;8.93;8.27;;;;;;;32.49;31.14;100623.19;4863794;28;101685;-86
2021/09/26 09:56:13;;;;;;;8.25;7.75;;;;;;;31.20;33.18;100633.09;4893262;28;96822;-88
2021/09/26 09:58:56;;;;;;;8.55;7.90;;;;;;;31.14;33.71;100628.41;4897074;28;97254;-86
2021/09/26 10:01:36;;;;;;;8.75;7.90;;;;;;;30.09;36.05;100625.88;4875842;28;100323;-89
2021/09/26 10:04:04;;;;;;;7.60;7.10;;;;;;;29.63;36.12;100617.47;4892188;28;98406;-86
2021/09/26 10:06:40;;;;;;;8.48;7.88;;;;;;;29.81;36.33;100628.09;4877748;28;97458;-88
2021/09/26 10:09:15;;;;;;;8.82;8.23;;;;;;;30.09;36.38;100627.75;4862968;28;97106;-86
2021/09/26 10:12:09;;;;;;;8.60;8.10;;;;;;;30.99;34.14;100624.78;4896195;28;98558;-86
2021/09/26 10:14:35;;;;;;;7.78;7.32;;;;;;;30.66;33.84;100620.34;4895103;28;101547;-88
2021/09/26 10:17:03;;;;;;;7.72;7.32;;;;;;;29.88;35.98;100620.16;4878267;28;97106;-89
2021/09/26 10:19:31;;;;;;;9.63;9.02;;;;;;;30.13;35.31;100619.09;4880493;28;97004;-90
2021/09/26 10:22:01;;;;;;;9.80;9.23;;;;;;;30.14;35.65;100620.81;4876810;28;100282;-89
2021/09/26 10:24:29;;;;;;;9.63;8.93;;;;;;;29.36;37.15;100625.88;4876952;28;101500;-89
2021/09/26 10:27:01;;;;;;;7.95;7.45;;;;;;;29.55;36.27;100617.41;4880192;28;96696;-86
2021/09/26 10:29:28;;;;;;;8.35;7.68;;;;;;;30.10;34.91;100624.00;4860530;28;97214;-84
2021/09/26 10:31:56;;;;;;;7.95;7.45;;;;;;;30.56;34.98;100619.69;4878743;28;98397;-83
2021/09/26 10:34:22;;;;;;;8.15;7.65;;;;;;;30.57;34.89;100617.81;4862686;28;100979;-85
2021/09/26 10:36:48;;;;;;;7.75;7.25;;;;;;;30.16;36.15;100621.44;4877695;28;97302;-86
2021/09/26 10:39:15;;;;;;;8.68;8.00;;;;;;;29.37;37.59;100619.44;4860495;28;96993;-86
2021/09/26 10:42:05;;;;;;;7.20;6.65;;;;;;;29.15;37.01;100618.22;4863031;28;101275;-88
2021/09/26 10:44:31;;;;;;;;;;;;;;;28.62;37.80;100631.00;4895214;28;101303;-88
2021/09/26 10:47:16;;;;;;;9.00;8.40;;;;;;;28.12;38.89;100629.84;4894676;28;97634;-84
2021/09/26 10:49:49;;;;;;;8.80;8.20;;;;;;;28.01;39.34;100622.03;4894626;28;97052;-87
2021/09/26 10:52:30;;;;;;;8.40;7.80;;;;;;;27.47;38.94;100621.25;4894366;28;98086;-85
2021/09/26 10:55:16;;;;;;;8.90;8.00;;;;;;;26.76;40.48;100621.94;4892479;28;101312;-83
2021/09/26 10:57:46;;;;;;;8.52;8.00;;;;;;;26.69;41.72;100619.00;4890683;28;97006;-85
2021/09/26 11:00:35;;;;;;;7.95;7.25;;;;;;;26.82;41.70;100611.44;4875974;28;97158;-86
2021/09/26 11:03:12;;;;;;;9.15;8.35;;;;;;;26.75;41.93;100612.19;4894766;28;99021;-86
2021/09/26 11:05:43;;;;;;;8.20;7.70;;;;;;;26.58;41.67;100609.28;4893927;28;98596;-85
2021/09/26 11:08:14;;;;;;;8.00;7.50;;;;;;;26.41;42.03;100607.34;4873867;28;97973;-80
2021/09/26 11:10:45;;;;;;;7.95;7.40;;;;;;;26.52;41.54;100614.41;4878170;28;96777;-80
2021/09/26 11:13:19;;;;;;;7.82;7.22;;;;;;;26.40;42.32;100614.56;4877541;28;98539;-85
2021/09/26 11:16:08;;;;;;;7.55;7.05;;;;;;;25.92;42.98;100607.50;4863392;28;101280;-85